sensor_id;sensor_type;location;lat;lon;timestamp;temperature;humidity
8188;DHT22;4135;49.184;9.722;2023-05-02T00:01:08;21.70;49.90
8188;DHT22;4135;49.184;9.722;2023-05-02T00:03:37;21.70;49.90
8188;DHT22;4135;49.184;9.722;2023-05-02T00:06:07;21.70;49.90
8188;DHT22;4135;49.184;9.722;2023-05-02T00:08:36;21.70;49.90
8188;DHT22;4135;49.184;9.722;2023-05-02T00:11:06;21.70;49.90
8188;DHT22;4135;49.184;9.722;2023-05-02T00:13:35;22.40;50.50
8188;DHT22;4135;49.184;9.722;2023-05-02T00:16:05;21.70;49.90
8188;DHT22;4135;49.184;9.722;2023-05-02T00:18:35;21.70;49.90
8188;DHT22;4135;49.184;9.722;2023-05-02T00:21:04;21.60;49.80
8188;DHT22;4135;49.184;9.722;2023-05-02T00:23:34;21.70;50.00
8188;DHT22;4135;49.184;9.722;2023-05-02T00:26:10;21.70;50.00
8188;DHT22;4135;49.184;9.722;2023-05-02T00:28:39;21.70;50.00
8188;DHT22;4135;49.184;9.722;2023-05-02T00:31:09;21.60;49.90
8188;DHT22;4135;49.184;9.722;2023-05-02T00:33:39;21.60;49.90
8188;DHT22;4135;49.184;9.722;2023-05-02T00:36:15;21.60;50.00
8188;DHT22;4135;49.184;9.722;2023-05-02T00:38:45;21.60;50.00
8188;DHT22;4135;49.184;9.722;2023-05-02T00:41:16;21.60;50.00
8188;DHT22;4135;49.184;9.722;2023-05-02T00:43:45;21.60;50.00
8188;DHT22;4135;49.184;9.722;2023-05-02T00:46:15;21.60;50.00
8188;DHT22;4135;49.184;9.722;2023-05-02T00:48:44;21.60;50.00
8188;DHT22;4135;49.184;9.722;2023-05-02T00:51:14;21.60;50.00
8188;DHT22;4135;49.184;9.722;2023-05-02T00:53:43;21.60;50.10
8188;DHT22;4135;49.184;9.722;2023-05-02T00:56:13;21.60;50.10
8188;DHT22;4135;49.184;9.722;2023-05-02T00:58:44;21.60;50.10
8188;DHT22;4135;49.184;9.722;2023-05-02T01:01:43;21.60;50.20
8188;DHT22;4135;49.184;9.722;2023-05-02T01:04:39;21.60;50.20
8188;DHT22;4135;49.184;9.722;2023-05-02T01:10:30;21.60;50.20
8188;DHT22;4135;49.184;9.722;2023-05-02T01:13:16;21.60;50.20
8188;DHT22;4135;49.184;9.722;2023-05-02T01:15:51;21.60;50.20
8188;DHT22;4135;49.184;9.722;2023-05-02T01:18:23;21.60;50.20
8188;DHT22;4135;49.184;9.722;2023-05-02T01:21:02;21.60;50.20
8188;DHT22;4135;49.184;9.722;2023-05-02T01:26:45;21.60;50.20
8188;DHT22;4135;49.184;9.722;2023-05-02T01:29:19;21.60;50.30
8188;DHT22;4135;49.184;9.722;2023-05-02T01:31:50;21.60;50.30
8188;DHT22;4135;49.184;9.722;2023-05-02T01:34:20;21.60;50.30
8188;DHT22;4135;49.184;9.722;2023-05-02T01:36:51;21.60;50.30
8188;DHT22;4135;49.184;9.722;2023-05-02T01:39:23;21.60;50.30
8188;DHT22;4135;49.184;9.722;2023-05-02T01:41:55;21.60;50.30
8188;DHT22;4135;49.184;9.722;2023-05-02T01:44:26;21.60;50.30
8188;DHT22;4135;49.184;9.722;2023-05-02T01:46:59;21.60;50.30
8188;DHT22;4135;49.184;9.722;2023-05-02T01:49:32;21.60;50.40
8188;DHT22;4135;49.184;9.722;2023-05-02T01:52:04;21.60;50.40
8188;DHT22;4135;49.184;9.722;2023-05-02T01:54:36;21.50;50.30
8188;DHT22;4135;49.184;9.722;2023-05-02T01:57:08;21.50;50.30
8188;DHT22;4135;49.184;9.722;2023-05-02T01:59:39;21.50;50.30
8188;DHT22;4135;49.184;9.722;2023-05-02T02:02:10;21.50;50.30
8188;DHT22;4135;49.184;9.722;2023-05-02T02:04:41;21.50;50.30
8188;DHT22;4135;49.184;9.722;2023-05-02T02:07:13;21.50;50.30
8188;DHT22;4135;49.184;9.722;2023-05-02T02:09:42;21.50;50.40
8188;DHT22;4135;49.184;9.722;2023-05-02T02:12:21;21.50;50.40
8188;DHT22;4135;49.184;9.722;2023-05-02T02:15:29;21.50;50.40
8188;DHT22;4135;49.184;9.722;2023-05-02T02:18:08;21.50;50.40
8188;DHT22;4135;49.184;9.722;2023-05-02T02:20:42;21.50;50.40
8188;DHT22;4135;49.184;9.722;2023-05-02T02:23:13;21.50;50.40
8188;DHT22;4135;49.184;9.722;2023-05-02T02:25:44;21.50;50.40
8188;DHT22;4135;49.184;9.722;2023-05-02T02:28:14;21.50;50.40
8188;DHT22;4135;49.184;9.722;2023-05-02T02:30:44;21.50;50.40
8188;DHT22;4135;49.184;9.722;2023-05-02T02:33:14;21.50;50.40
8188;DHT22;4135;49.184;9.722;2023-05-02T02:35:47;21.50;50.50
8188;DHT22;4135;49.184;9.722;2023-05-02T02:38:28;21.40;50.40
8188;DHT22;4135;49.184;9.722;2023-05-02T02:41:19;21.40;50.40
8188;DHT22;4135;49.184;9.722;2023-05-02T02:44:04;21.40;50.40
8188;DHT22;4135;49.184;9.722;2023-05-02T02:54:38;21.40;50.50
8188;DHT22;4135;49.184;9.722;2023-05-02T02:57:16;21.40;50.50
8188;DHT22;4135;49.184;9.722;2023-05-02T03:00:19;21.40;50.50
8188;DHT22;4135;49.184;9.722;2023-05-02T03:02:51;21.40;50.50
8188;DHT22;4135;49.184;9.722;2023-05-02T03:05:22;21.40;50.60
8188;DHT22;4135;49.184;9.722;2023-05-02T03:07:52;21.40;50.60
8188;DHT22;4135;49.184;9.722;2023-05-02T03:10:22;21.40;50.50
8188;DHT22;4135;49.184;9.722;2023-05-02T03:12:51;21.40;50.60
8188;DHT22;4135;49.184;9.722;2023-05-02T03:18:05;21.40;50.60
8188;DHT22;4135;49.184;9.722;2023-05-02T03:20:35;21.30;50.50
8188;DHT22;4135;49.184;9.722;2023-05-02T03:23:04;21.30;50.60
8188;DHT22;4135;49.184;9.722;2023-05-02T03:25:34;21.30;50.60
8188;DHT22;4135;49.184;9.722;2023-05-02T03:28:03;21.30;50.60
8188;DHT22;4135;49.184;9.722;2023-05-02T03:30:33;21.30;50.60
8188;DHT22;4135;49.184;9.722;2023-05-02T03:33:03;21.30;50.60
8188;DHT22;4135;49.184;9.722;2023-05-02T03:35:36;21.30;50.60
8188;DHT22;4135;49.184;9.722;2023-05-02T03:38:05;21.30;50.60
8188;DHT22;4135;49.184;9.722;2023-05-02T03:40:35;21.30;50.80
8188;DHT22;4135;49.184;9.722;2023-05-02T03:43:04;21.30;50.60
8188;DHT22;4135;49.184;9.722;2023-05-02T03:45:34;21.30;50.60
8188;DHT22;4135;49.184;9.722;2023-05-02T03:48:03;21.30;50.60
8188;DHT22;4135;49.184;9.722;2023-05-02T03:50:33;21.30;50.60
8188;DHT22;4135;49.184;9.722;2023-05-02T03:53:02;21.30;50.60
8188;DHT22;4135;49.184;9.722;2023-05-02T03:55:32;21.30;50.60
8188;DHT22;4135;49.184;9.722;2023-05-02T03:58:02;21.30;50.60
8188;DHT22;4135;49.184;9.722;2023-05-02T04:00:31;21.30;50.70
8188;DHT22;4135;49.184;9.722;2023-05-02T04:03:01;21.30;50.60
8188;DHT22;4135;49.184;9.722;2023-05-02T04:05:31;21.30;50.60
8188;DHT22;4135;49.184;9.722;2023-05-02T04:08:00;21.30;50.70
8188;DHT22;4135;49.184;9.722;2023-05-02T04:10:31;21.30;50.60
8188;DHT22;4135;49.184;9.722;2023-05-02T04:13:00;21.20;50.50
8188;DHT22;4135;49.184;9.722;2023-05-02T04:15:31;21.20;50.50
8188;DHT22;4135;49.184;9.722;2023-05-02T04:18:01;21.20;50.60
8188;DHT22;4135;49.184;9.722;2023-05-02T04:20:30;21.20;50.60
8188;DHT22;4135;49.184;9.722;2023-05-02T04:23:00;21.20;50.60
8188;DHT22;4135;49.184;9.722;2023-05-02T04:25:29;21.20;50.60
8188;DHT22;4135;49.184;9.722;2023-05-02T04:27:59;21.20;50.60
8188;DHT22;4135;49.184;9.722;2023-05-02T04:30:30;21.20;50.70
8188;DHT22;4135;49.184;9.722;2023-05-02T04:32:59;21.20;50.70
8188;DHT22;4135;49.184;9.722;2023-05-02T04:35:28;21.20;50.70
8188;DHT22;4135;49.184;9.722;2023-05-02T04:37:58;21.20;50.80
8188;DHT22;4135;49.184;9.722;2023-05-02T04:40:27;21.20;50.70
8188;DHT22;4135;49.184;9.722;2023-05-02T04:42:57;21.20;50.70
8188;DHT22;4135;49.184;9.722;2023-05-02T04:45:27;21.20;50.80
8188;DHT22;4135;49.184;9.722;2023-05-02T04:47:56;21.20;50.80
8188;DHT22;4135;49.184;9.722;2023-05-02T04:50:26;21.20;50.80
8188;DHT22;4135;49.184;9.722;2023-05-02T04:52:56;21.20;50.80
8188;DHT22;4135;49.184;9.722;2023-05-02T04:55:26;21.20;50.80
8188;DHT22;4135;49.184;9.722;2023-05-02T04:57:55;21.20;50.80
8188;DHT22;4135;49.184;9.722;2023-05-02T05:00:25;21.20;50.70
8188;DHT22;4135;49.184;9.722;2023-05-02T05:02:55;21.20;50.80
8188;DHT22;4135;49.184;9.722;2023-05-02T05:05:24;21.20;50.70
8188;DHT22;4135;49.184;9.722;2023-05-02T05:07:54;21.20;50.80
8188;DHT22;4135;49.184;9.722;2023-05-02T05:10:23;21.20;50.80
8188;DHT22;4135;49.184;9.722;2023-05-02T05:12:53;21.20;50.80
8188;DHT22;4135;49.184;9.722;2023-05-02T05:15:22;21.20;50.80
8188;DHT22;4135;49.184;9.722;2023-05-02T05:17:54;21.20;50.80
8188;DHT22;4135;49.184;9.722;2023-05-02T05:20:23;21.20;50.80
8188;DHT22;4135;49.184;9.722;2023-05-02T05:22:53;21.20;51.40
8188;DHT22;4135;49.184;9.722;2023-05-02T05:25:22;21.20;50.80
8188;DHT22;4135;49.184;9.722;2023-05-02T05:27:53;21.20;50.80
8188;DHT22;4135;49.184;9.722;2023-05-02T05:30:26;21.20;50.80
8188;DHT22;4135;49.184;9.722;2023-05-02T05:32:56;21.20;50.90
8188;DHT22;4135;49.184;9.722;2023-05-02T05:35:26;21.20;50.90
8188;DHT22;4135;49.184;9.722;2023-05-02T05:37:56;21.20;50.90
8188;DHT22;4135;49.184;9.722;2023-05-02T05:40:25;21.20;50.90
8188;DHT22;4135;49.184;9.722;2023-05-02T05:42:55;21.20;51.00
8188;DHT22;4135;49.184;9.722;2023-05-02T05:45:24;21.20;51.00
8188;DHT22;4135;49.184;9.722;2023-05-02T05:47:54;21.00;50.90
8188;DHT22;4135;49.184;9.722;2023-05-02T05:50:24;21.10;51.00
8188;DHT22;4135;49.184;9.722;2023-05-02T05:52:53;21.20;51.20
8188;DHT22;4135;49.184;9.722;2023-05-02T05:55:23;21.10;51.20
8188;DHT22;4135;49.184;9.722;2023-05-02T05:57:52;21.10;51.20
8188;DHT22;4135;49.184;9.722;2023-05-02T06:00:22;21.10;51.20
8188;DHT22;4135;49.184;9.722;2023-05-02T06:02:51;21.10;51.20
8188;DHT22;4135;49.184;9.722;2023-05-02T06:05:21;21.00;51.20
8188;DHT22;4135;49.184;9.722;2023-05-02T06:07:50;21.40;51.50
8188;DHT22;4135;49.184;9.722;2023-05-02T06:10:20;21.10;51.30
8188;DHT22;4135;49.184;9.722;2023-05-02T06:12:49;21.10;51.30
8188;DHT22;4135;49.184;9.722;2023-05-02T06:15:19;21.00;51.20
8188;DHT22;4135;49.184;9.722;2023-05-02T06:17:52;21.00;51.20
8188;DHT22;4135;49.184;9.722;2023-05-02T06:20:21;21.00;51.20
8188;DHT22;4135;49.184;9.722;2023-05-02T06:22:51;21.00;51.20
8188;DHT22;4135;49.184;9.722;2023-05-02T06:25:21;21.00;51.20
8188;DHT22;4135;49.184;9.722;2023-05-02T06:27:50;21.00;51.20
8188;DHT22;4135;49.184;9.722;2023-05-02T06:30:20;21.10;51.20
8188;DHT22;4135;49.184;9.722;2023-05-02T06:32:49;21.10;51.20
8188;DHT22;4135;49.184;9.722;2023-05-02T06:35:19;21.10;51.30
8188;DHT22;4135;49.184;9.722;2023-05-02T06:37:49;21.10;51.30
8188;DHT22;4135;49.184;9.722;2023-05-02T06:40:18;21.10;51.30
8188;DHT22;4135;49.184;9.722;2023-05-02T06:42:48;21.10;51.30
8188;DHT22;4135;49.184;9.722;2023-05-02T06:45:17;21.10;51.30
8188;DHT22;4135;49.184;9.722;2023-05-02T06:47:47;21.10;51.30
8188;DHT22;4135;49.184;9.722;2023-05-02T06:50:16;21.10;51.30
8188;DHT22;4135;49.184;9.722;2023-05-02T06:52:46;21.10;51.40
8188;DHT22;4135;49.184;9.722;2023-05-02T06:55:15;21.10;51.30
8188;DHT22;4135;49.184;9.722;2023-05-02T06:57:45;21.10;51.30
8188;DHT22;4135;49.184;9.722;2023-05-02T07:00:18;21.10;51.30
8188;DHT22;4135;49.184;9.722;2023-05-02T07:02:48;21.10;51.30
8188;DHT22;4135;49.184;9.722;2023-05-02T07:05:18;21.10;51.30
8188;DHT22;4135;49.184;9.722;2023-05-02T07:07:47;21.10;51.20
8188;DHT22;4135;49.184;9.722;2023-05-02T07:10:16;21.10;51.20
8188;DHT22;4135;49.184;9.722;2023-05-02T07:12:46;21.10;51.30
8188;DHT22;4135;49.184;9.722;2023-05-02T07:15:16;21.20;51.30
8188;DHT22;4135;49.184;9.722;2023-05-02T07:17:45;21.10;51.10
8188;DHT22;4135;49.184;9.722;2023-05-02T07:20:16;21.10;51.10
8188;DHT22;4135;49.184;9.722;2023-05-02T07:22:45;21.10;51.70
8188;DHT22;4135;49.184;9.722;2023-05-02T07:25:15;21.10;51.10
8188;DHT22;4135;49.184;9.722;2023-05-02T07:27:44;21.10;51.00
8188;DHT22;4135;49.184;9.722;2023-05-02T07:30:14;21.10;51.00
8188;DHT22;4135;49.184;9.722;2023-05-02T07:32:44;21.10;51.00
8188;DHT22;4135;49.184;9.722;2023-05-02T07:35:13;21.10;51.00
8188;DHT22;4135;49.184;9.722;2023-05-02T07:37:43;20.60;50.50
8188;DHT22;4135;49.184;9.722;2023-05-02T07:40:12;21.20;51.00
8188;DHT22;4135;49.184;9.722;2023-05-02T07:42:42;21.10;50.90
8188;DHT22;4135;49.184;9.722;2023-05-02T07:45:12;21.10;50.90
8188;DHT22;4135;49.184;9.722;2023-05-02T07:47:42;21.20;51.00
8188;DHT22;4135;49.184;9.722;2023-05-02T07:50:11;21.20;51.00
8188;DHT22;4135;49.184;9.722;2023-05-02T07:52:41;21.20;51.00
8188;DHT22;4135;49.184;9.722;2023-05-02T07:55:10;21.20;50.90
8188;DHT22;4135;49.184;9.722;2023-05-02T07:57:40;21.20;51.00
8188;DHT22;4135;49.184;9.722;2023-05-02T08:00:10;21.20;51.00
8188;DHT22;4135;49.184;9.722;2023-05-02T08:02:40;21.10;50.80
8188;DHT22;4135;49.184;9.722;2023-05-02T08:05:10;21.10;50.80
8188;DHT22;4135;49.184;9.722;2023-05-02T08:07:40;21.20;50.90
8188;DHT22;4135;49.184;9.722;2023-05-02T08:10:10;21.20;50.90
8188;DHT22;4135;49.184;9.722;2023-05-02T08:12:40;21.20;50.90
8188;DHT22;4135;49.184;9.722;2023-05-02T08:15:11;21.10;50.80
8188;DHT22;4135;49.184;9.722;2023-05-02T08:17:41;21.20;51.00
8188;DHT22;4135;49.184;9.722;2023-05-02T08:20:11;21.20;51.00
8188;DHT22;4135;49.184;9.722;2023-05-02T08:22:40;21.20;51.00
8188;DHT22;4135;49.184;9.722;2023-05-02T08:25:10;21.20;51.00
8188;DHT22;4135;49.184;9.722;2023-05-02T08:27:39;21.20;51.00
8188;DHT22;4135;49.184;9.722;2023-05-02T08:30:09;21.20;51.00
8188;DHT22;4135;49.184;9.722;2023-05-02T08:32:39;21.20;51.00
8188;DHT22;4135;49.184;9.722;2023-05-02T08:35:09;21.20;51.00
8188;DHT22;4135;49.184;9.722;2023-05-02T08:37:38;21.10;50.90
8188;DHT22;4135;49.184;9.722;2023-05-02T08:40:11;21.20;51.00
8188;DHT22;4135;49.184;9.722;2023-05-02T08:42:42;21.20;51.00
8188;DHT22;4135;49.184;9.722;2023-05-02T08:45:13;21.20;51.00
8188;DHT22;4135;49.184;9.722;2023-05-02T08:47:44;21.10;51.10
8188;DHT22;4135;49.184;9.722;2023-05-02T08:50:16;21.10;51.30
8188;DHT22;4135;49.184;9.722;2023-05-02T08:52:47;21.00;51.30
8188;DHT22;4135;49.184;9.722;2023-05-02T08:55:18;21.00;51.30
8188;DHT22;4135;49.184;9.722;2023-05-02T08:57:57;21.00;51.40
8188;DHT22;4135;49.184;9.722;2023-05-02T09:00:27;21.10;51.50
8188;DHT22;4135;49.184;9.722;2023-05-02T09:03:28;21.10;51.50
8188;DHT22;4135;49.184;9.722;2023-05-02T09:06:36;21.10;51.60
8188;DHT22;4135;49.184;9.722;2023-05-02T09:08:59;21.20;51.70
8188;DHT22;4135;49.184;9.722;2023-05-02T09:11:29;21.20;51.70
8188;DHT22;4135;49.184;9.722;2023-05-02T09:13:59;21.20;51.80
8188;DHT22;4135;49.184;9.722;2023-05-02T09:16:37;21.20;51.80
8188;DHT22;4135;49.184;9.722;2023-05-02T09:19:08;21.20;51.90
8188;DHT22;4135;49.184;9.722;2023-05-02T09:21:38;21.30;52.50
8188;DHT22;4135;49.184;9.722;2023-05-02T09:24:19;21.30;52.00
8188;DHT22;4135;49.184;9.722;2023-05-02T09:26:57;21.30;52.10
8188;DHT22;4135;49.184;9.722;2023-05-02T09:29:28;21.30;52.10
8188;DHT22;4135;49.184;9.722;2023-05-02T09:32:04;21.30;52.10
8188;DHT22;4135;49.184;9.722;2023-05-02T09:34:34;21.30;52.10
8188;DHT22;4135;49.184;9.722;2023-05-02T09:37:05;21.30;52.20
8188;DHT22;4135;49.184;9.722;2023-05-02T09:39:35;21.30;52.20
8188;DHT22;4135;49.184;9.722;2023-05-02T09:42:05;21.30;52.20
8188;DHT22;4135;49.184;9.722;2023-05-02T09:44:38;21.30;52.20
8188;DHT22;4135;49.184;9.722;2023-05-02T09:47:08;21.30;52.20
8188;DHT22;4135;49.184;9.722;2023-05-02T09:49:42;21.30;52.20
8188;DHT22;4135;49.184;9.722;2023-05-02T09:52:16;21.30;52.20
8188;DHT22;4135;49.184;9.722;2023-05-02T09:54:47;21.40;52.30
8188;DHT22;4135;49.184;9.722;2023-05-02T09:57:19;21.30;52.20
8188;DHT22;4135;49.184;9.722;2023-05-02T09:59:54;21.40;52.30
8188;DHT22;4135;49.184;9.722;2023-05-02T10:02:24;21.40;52.30
8188;DHT22;4135;49.184;9.722;2023-05-02T10:04:55;21.40;52.30
8188;DHT22;4135;49.184;9.722;2023-05-02T10:07:26;21.40;52.30
8188;DHT22;4135;49.184;9.722;2023-05-02T10:09:57;21.40;52.30
8188;DHT22;4135;49.184;9.722;2023-05-02T10:12:29;21.40;52.30
8188;DHT22;4135;49.184;9.722;2023-05-02T10:15:03;21.40;52.30
8188;DHT22;4135;49.184;9.722;2023-05-02T10:17:47;21.40;52.30
8188;DHT22;4135;49.184;9.722;2023-05-02T10:20:26;21.30;52.20
8188;DHT22;4135;49.184;9.722;2023-05-02T10:22:58;21.30;52.30
8188;DHT22;4135;49.184;9.722;2023-05-02T10:25:29;21.30;52.20
8188;DHT22;4135;49.184;9.722;2023-05-02T10:27:59;21.30;52.20
8188;DHT22;4135;49.184;9.722;2023-05-02T10:30:29;21.30;52.20
8188;DHT22;4135;49.184;9.722;2023-05-02T10:32:59;21.30;52.20
8188;DHT22;4135;49.184;9.722;2023-05-02T10:35:31;21.20;52.10
8188;DHT22;4135;49.184;9.722;2023-05-02T10:38:00;21.30;52.00
8188;DHT22;4135;49.184;9.722;2023-05-02T10:40:30;21.20;52.00
8188;DHT22;4135;49.184;9.722;2023-05-02T10:43:00;21.30;52.10
8188;DHT22;4135;49.184;9.722;2023-05-02T10:45:34;21.30;52.20
8188;DHT22;4135;49.184;9.722;2023-05-02T10:48:15;21.30;52.20
8188;DHT22;4135;49.184;9.722;2023-05-02T10:50:46;21.40;52.30
8188;DHT22;4135;49.184;9.722;2023-05-02T10:56:15;21.30;52.20
8188;DHT22;4135;49.184;9.722;2023-05-02T10:58:47;21.30;52.30
8188;DHT22;4135;49.184;9.722;2023-05-02T11:04:01;21.30;52.30
8188;DHT22;4135;49.184;9.722;2023-05-02T11:06:36;21.20;52.30
8188;DHT22;4135;49.184;9.722;2023-05-02T11:11:50;21.20;52.40
8188;DHT22;4135;49.184;9.722;2023-05-02T11:24:56;20.80;51.70
8188;DHT22;4135;49.184;9.722;2023-05-02T11:30:06;20.80;51.60
8188;DHT22;4135;49.184;9.722;2023-05-02T11:35:21;20.90;51.60
8188;DHT22;4135;49.184;9.722;2023-05-02T11:38:05;21.00;51.60
8188;DHT22;4135;49.184;9.722;2023-05-02T11:40:35;21.00;51.50
8188;DHT22;4135;49.184;9.722;2023-05-02T11:43:24;21.10;51.60
8188;DHT22;4135;49.184;9.722;2023-05-02T11:45:54;21.10;51.60
8188;DHT22;4135;49.184;9.722;2023-05-02T11:48:25;21.10;51.60
8188;DHT22;4135;49.184;9.722;2023-05-02T11:50:59;21.10;51.60
8188;DHT22;4135;49.184;9.722;2023-05-02T11:53:33;21.10;51.60
8188;DHT22;4135;49.184;9.722;2023-05-02T11:56:08;21.10;51.60
8188;DHT22;4135;49.184;9.722;2023-05-02T11:58:37;21.10;51.70
8188;DHT22;4135;49.184;9.722;2023-05-02T12:01:14;21.10;51.70
8188;DHT22;4135;49.184;9.722;2023-05-02T12:03:44;21.00;51.60
8188;DHT22;4135;49.184;9.722;2023-05-02T12:06:15;21.00;51.70
8188;DHT22;4135;49.184;9.722;2023-05-02T12:08:46;21.10;51.90
8188;DHT22;4135;49.184;9.722;2023-05-02T12:11:17;21.10;51.90
8188;DHT22;4135;49.184;9.722;2023-05-02T12:13:48;21.00;51.90
8188;DHT22;4135;49.184;9.722;2023-05-02T12:16:18;21.10;52.00
8188;DHT22;4135;49.184;9.722;2023-05-02T12:18:48;21.00;51.90
8188;DHT22;4135;49.184;9.722;2023-05-02T12:21:18;21.00;51.90
8188;DHT22;4135;49.184;9.722;2023-05-02T12:23:48;21.00;51.90
8188;DHT22;4135;49.184;9.722;2023-05-02T12:26:22;20.90;51.80
8188;DHT22;4135;49.184;9.722;2023-05-02T12:28:59;20.90;51.90
8188;DHT22;4135;49.184;9.722;2023-05-02T12:31:30;20.80;51.70
8188;DHT22;4135;49.184;9.722;2023-05-02T12:34:01;20.80;51.70
8188;DHT22;4135;49.184;9.722;2023-05-02T12:36:30;20.80;51.50
8188;DHT22;4135;49.184;9.722;2023-05-02T12:39:02;20.80;51.30
8188;DHT22;4135;49.184;9.722;2023-05-02T12:41:33;20.70;51.20
8188;DHT22;4135;49.184;9.722;2023-05-02T12:44:04;20.80;51.20
8188;DHT22;4135;49.184;9.722;2023-05-02T12:46:34;20.70;51.10
8188;DHT22;4135;49.184;9.722;2023-05-02T12:49:05;20.70;51.10
8188;DHT22;4135;49.184;9.722;2023-05-02T12:51:40;20.70;51.00
8188;DHT22;4135;49.184;9.722;2023-05-02T12:54:19;20.70;51.60
8188;DHT22;4135;49.184;9.722;2023-05-02T12:56:49;20.60;50.90
8188;DHT22;4135;49.184;9.722;2023-05-02T12:59:27;20.60;50.80
8188;DHT22;4135;49.184;9.722;2023-05-02T13:01:58;20.60;50.70
8188;DHT22;4135;49.184;9.722;2023-05-02T13:04:36;20.60;50.70
8188;DHT22;4135;49.184;9.722;2023-05-02T13:07:07;20.60;50.60
8188;DHT22;4135;49.184;9.722;2023-05-02T13:09:36;20.60;50.60
8188;DHT22;4135;49.184;9.722;2023-05-02T13:12:06;20.70;50.70
8188;DHT22;4135;49.184;9.722;2023-05-02T13:14:36;20.70;50.80
8188;DHT22;4135;49.184;9.722;2023-05-02T13:17:05;20.70;50.70
8188;DHT22;4135;49.184;9.722;2023-05-02T13:19:36;20.80;50.80
8188;DHT22;4135;49.184;9.722;2023-05-02T13:22:06;20.80;50.80
8188;DHT22;4135;49.184;9.722;2023-05-02T13:24:37;20.80;50.70
8188;DHT22;4135;49.184;9.722;2023-05-02T13:27:06;20.80;50.80
8188;DHT22;4135;49.184;9.722;2023-05-02T13:29:35;20.80;50.90
8188;DHT22;4135;49.184;9.722;2023-05-02T13:32:05;20.80;51.00
8188;DHT22;4135;49.184;9.722;2023-05-02T13:34:35;20.70;51.00
8188;DHT22;4135;49.184;9.722;2023-05-02T13:37:04;20.70;51.10
8188;DHT22;4135;49.184;9.722;2023-05-02T13:39:34;20.80;51.20
8188;DHT22;4135;49.184;9.722;2023-05-02T13:42:04;20.80;51.30
8188;DHT22;4135;49.184;9.722;2023-05-02T13:44:34;20.80;51.30
8188;DHT22;4135;49.184;9.722;2023-05-02T13:47:04;20.80;51.30
8188;DHT22;4135;49.184;9.722;2023-05-02T13:49:34;20.80;51.40
8188;DHT22;4135;49.184;9.722;2023-05-02T13:52:03;20.80;51.50
8188;DHT22;4135;49.184;9.722;2023-05-02T13:54:33;20.80;51.50
8188;DHT22;4135;49.184;9.722;2023-05-02T13:57:02;20.80;51.60
8188;DHT22;4135;49.184;9.722;2023-05-02T13:59:33;20.80;51.60
8188;DHT22;4135;49.184;9.722;2023-05-02T14:02:02;20.80;51.60
8188;DHT22;4135;49.184;9.722;2023-05-02T14:04:32;20.80;51.70
8188;DHT22;4135;49.184;9.722;2023-05-02T14:07:01;20.80;51.70
8188;DHT22;4135;49.184;9.722;2023-05-02T14:09:31;20.60;51.50
8188;DHT22;4135;49.184;9.722;2023-05-02T14:12:00;20.80;51.70
8188;DHT22;4135;49.184;9.722;2023-05-02T14:14:30;20.80;51.70
8188;DHT22;4135;49.184;9.722;2023-05-02T14:17:00;20.80;51.70
8188;DHT22;4135;49.184;9.722;2023-05-02T14:19:30;20.80;51.60
8188;DHT22;4135;49.184;9.722;2023-05-02T14:22:00;20.70;51.40
8188;DHT22;4135;49.184;9.722;2023-05-02T14:24:30;20.70;51.30
8188;DHT22;4135;49.184;9.722;2023-05-02T14:26:59;20.70;51.20
8188;DHT22;4135;49.184;9.722;2023-05-02T14:29:29;20.70;51.20
8188;DHT22;4135;49.184;9.722;2023-05-02T14:31:59;20.70;51.20
8188;DHT22;4135;49.184;9.722;2023-05-02T14:34:28;20.70;51.10
8188;DHT22;4135;49.184;9.722;2023-05-02T14:36:58;20.70;51.10
8188;DHT22;4135;49.184;9.722;2023-05-02T14:39:28;20.70;51.00
8188;DHT22;4135;49.184;9.722;2023-05-02T14:41:57;20.70;51.00
8188;DHT22;4135;49.184;9.722;2023-05-02T14:44:27;20.70;50.90
8188;DHT22;4135;49.184;9.722;2023-05-02T14:46:57;20.60;50.80
8188;DHT22;4135;49.184;9.722;2023-05-02T14:49:27;20.70;50.80
8188;DHT22;4135;49.184;9.722;2023-05-02T14:51:57;21.80;51.70
8188;DHT22;4135;49.184;9.722;2023-05-02T14:54:27;20.70;50.80
8188;DHT22;4135;49.184;9.722;2023-05-02T14:56:58;20.70;50.70
8188;DHT22;4135;49.184;9.722;2023-05-02T14:59:31;20.70;50.70
8188;DHT22;4135;49.184;9.722;2023-05-02T15:02:00;20.70;50.70
8188;DHT22;4135;49.184;9.722;2023-05-02T15:04:30;20.70;50.60
8188;DHT22;4135;49.184;9.722;2023-05-02T15:07:00;20.60;51.10
8188;DHT22;4135;49.184;9.722;2023-05-02T15:09:29;20.60;50.50
8188;DHT22;4135;49.184;9.722;2023-05-02T15:11:59;20.60;50.40
8188;DHT22;4135;49.184;9.722;2023-05-02T15:14:28;20.60;50.30
8188;DHT22;4135;49.184;9.722;2023-05-02T15:16:58;20.50;50.20
8188;DHT22;4135;49.184;9.722;2023-05-02T15:19:27;20.50;50.10
8188;DHT22;4135;49.184;9.722;2023-05-02T15:21:57;20.50;50.10
8188;DHT22;4135;49.184;9.722;2023-05-02T15:24:26;20.50;50.20
8188;DHT22;4135;49.184;9.722;2023-05-02T15:26:56;20.50;50.20
8188;DHT22;4135;49.184;9.722;2023-05-02T15:29:26;20.60;50.30
8188;DHT22;4135;49.184;9.722;2023-05-02T15:31:55;20.50;50.30
8188;DHT22;4135;49.184;9.722;2023-05-02T15:34:25;20.60;50.30
8188;DHT22;4135;49.184;9.722;2023-05-02T15:36:55;20.60;50.30
8188;DHT22;4135;49.184;9.722;2023-05-02T15:39:27;20.60;50.40
8188;DHT22;4135;49.184;9.722;2023-05-02T15:41:56;20.60;50.50
8188;DHT22;4135;49.184;9.722;2023-05-02T15:44:26;20.60;50.50
8188;DHT22;4135;49.184;9.722;2023-05-02T15:46:56;20.60;50.60
8188;DHT22;4135;49.184;9.722;2023-05-02T15:49:25;20.60;50.60
8188;DHT22;4135;49.184;9.722;2023-05-02T15:51:59;20.60;50.60
8188;DHT22;4135;49.184;9.722;2023-05-02T15:54:29;20.60;50.60
8188;DHT22;4135;49.184;9.722;2023-05-02T15:57:00;20.60;50.60
8188;DHT22;4135;49.184;9.722;2023-05-02T15:59:30;20.60;50.60
8188;DHT22;4135;49.184;9.722;2023-05-02T16:02:00;20.70;50.70
8188;DHT22;4135;49.184;9.722;2023-05-02T16:04:30;20.60;50.70
8188;DHT22;4135;49.184;9.722;2023-05-02T16:07:03;20.70;50.80
8188;DHT22;4135;49.184;9.722;2023-05-02T16:09:32;20.60;50.60
8188;DHT22;4135;49.184;9.722;2023-05-02T16:12:02;20.60;50.40
8188;DHT22;4135;49.184;9.722;2023-05-02T16:14:32;20.70;50.40
8188;DHT22;4135;49.184;9.722;2023-05-02T16:17:01;20.70;50.30
8188;DHT22;4135;49.184;9.722;2023-05-02T16:19:32;20.70;50.10
8188;DHT22;4135;49.184;9.722;2023-05-02T16:22:01;20.70;50.10
8188;DHT22;4135;49.184;9.722;2023-05-02T16:24:31;20.70;50.00
8188;DHT22;4135;49.184;9.722;2023-05-02T16:27:00;20.70;49.80
8188;DHT22;4135;49.184;9.722;2023-05-02T16:29:30;20.60;49.30
8188;DHT22;4135;49.184;9.722;2023-05-02T16:31:59;20.60;49.10
8188;DHT22;4135;49.184;9.722;2023-05-02T16:34:32;20.60;49.00
8188;DHT22;4135;49.184;9.722;2023-05-02T16:37:02;20.60;48.80
8188;DHT22;4135;49.184;9.722;2023-05-02T16:39:32;20.60;48.80
8188;DHT22;4135;49.184;9.722;2023-05-02T16:42:02;20.70;48.70
8188;DHT22;4135;49.184;9.722;2023-05-02T16:44:32;20.70;48.60
8188;DHT22;4135;49.184;9.722;2023-05-02T16:47:02;20.60;48.50
8188;DHT22;4135;49.184;9.722;2023-05-02T16:49:31;20.70;48.60
8188;DHT22;4135;49.184;9.722;2023-05-02T16:52:01;20.70;48.50
8188;DHT22;4135;49.184;9.722;2023-05-02T16:54:30;20.80;48.60
8188;DHT22;4135;49.184;9.722;2023-05-02T16:57:00;21.10;48.80
8188;DHT22;4135;49.184;9.722;2023-05-02T16:59:30;20.80;48.60
8188;DHT22;4135;49.184;9.722;2023-05-02T17:02:00;20.80;48.60
8188;DHT22;4135;49.184;9.722;2023-05-02T17:04:30;20.80;48.60
8188;DHT22;4135;49.184;9.722;2023-05-02T17:06:59;20.80;48.70
8188;DHT22;4135;49.184;9.722;2023-05-02T17:09:29;20.80;49.30